sensor_id;sensor_type;location;lat;lon;timestamp;P1;durP1;ratioP1;P2;durP2;ratioP2
15454;SDS011;21057;51.024;7.540;2022-09-09T00:01:57;18.52;;;17.45;;
15454;SDS011;21057;51.024;7.540;2022-09-09T00:04:30;18.97;;;17.87;;
15454;SDS011;21057;51.024;7.540;2022-09-09T00:07:03;17.60;;;16.70;;
15454;SDS011;21057;51.024;7.540;2022-09-09T00:09:35;18.27;;;17.07;;
15454;SDS011;21057;51.024;7.540;2022-09-09T00:12:10;19.10;;;17.90;;
15454;SDS011;21057;51.024;7.540;2022-09-09T00:14:41;18.90;;;17.70;;
15454;SDS011;21057;51.024;7.540;2022-09-09T00:17:14;18.63;;;17.40;;
15454;SDS011;21057;51.024;7.540;2022-09-09T00:19:48;18.70;;;17.70;;
15454;SDS011;21057;51.024;7.540;2022-09-09T00:22:22;19.60;;;18.20;;
15454;SDS011;21057;51.024;7.540;2022-09-09T00:25:00;18.87;;;17.77;;
15454;SDS011;21057;51.024;7.540;2022-09-09T00:27:37;18.07;;;17.07;;
15454;SDS011;21057;51.024;7.540;2022-09-09T00:30:13;18.03;;;17.00;;
15454;SDS011;21057;51.024;7.540;2022-09-09T00:32:44;18.13;;;17.13;;
15454;SDS011;21057;51.024;7.540;2022-09-09T00:35:14;19.20;;;17.90;;
15454;SDS011;21057;51.024;7.540;2022-09-09T00:37:46;18.90;;;17.80;;
15454;SDS011;21057;51.024;7.540;2022-09-09T00:40:20;18.27;;;17.27;;
15454;SDS011;21057;51.024;7.540;2022-09-09T00:42:54;18.53;;;17.23;;
15454;SDS011;21057;51.024;7.540;2022-09-09T00:45:37;18.00;;;16.83;;
15454;SDS011;21057;51.024;7.540;2022-09-09T00:48:18;17.23;;;16.13;;
15454;SDS011;21057;51.024;7.540;2022-09-09T00:53:58;17.37;;;16.47;;
15454;SDS011;21057;51.024;7.540;2022-09-09T00:57:00;17.80;;;16.60;;
15454;SDS011;21057;51.024;7.540;2022-09-09T00:59:48;17.17;;;16.27;;
15454;SDS011;21057;51.024;7.540;2022-09-09T01:02:21;17.97;;;16.83;;
15454;SDS011;21057;51.024;7.540;2022-09-09T01:04:57;17.80;;;16.70;;
15454;SDS011;21057;51.024;7.540;2022-09-09T01:07:31;17.33;;;16.43;;
15454;SDS011;21057;51.024;7.540;2022-09-09T01:09:59;17.97;;;16.67;;
15454;SDS011;21057;51.024;7.540;2022-09-09T01:12:33;18.00;;;17.03;;
15454;SDS011;21057;51.024;7.540;2022-09-09T01:15:08;17.70;;;16.80;;
15454;SDS011;21057;51.024;7.540;2022-09-09T01:17:40;17.53;;;16.57;;
15454;SDS011;21057;51.024;7.540;2022-09-09T01:22:55;18.10;;;17.00;;
15454;SDS011;21057;51.024;7.540;2022-09-09T01:26:02;18.57;;;17.30;;
15454;SDS011;21057;51.024;7.540;2022-09-09T01:28:39;17.87;;;16.67;;
15454;SDS011;21057;51.024;7.540;2022-09-09T01:31:09;17.87;;;16.97;;
15454;SDS011;21057;51.024;7.540;2022-09-09T01:33:40;17.97;;;16.87;;
15454;SDS011;21057;51.024;7.540;2022-09-09T01:36:08;17.13;;;16.23;;
15454;SDS011;21057;51.024;7.540;2022-09-09T01:38:40;17.87;;;16.87;;
15454;SDS011;21057;51.024;7.540;2022-09-09T01:41:09;18.90;;;17.90;;
15454;SDS011;21057;51.024;7.540;2022-09-09T01:43:37;18.40;;;17.20;;
15454;SDS011;21057;51.024;7.540;2022-09-09T01:46:04;18.17;;;17.17;;
15454;SDS011;21057;51.024;7.540;2022-09-09T01:48:32;18.67;;;17.67;;
15454;SDS011;21057;51.024;7.540;2022-09-09T01:51:00;17.90;;;16.70;;
15454;SDS011;21057;51.024;7.540;2022-09-09T01:53:26;21.37;;;20.17;;
15454;SDS011;21057;51.024;7.540;2022-09-09T01:56:00;21.03;;;19.83;;
15454;SDS011;21057;51.024;7.540;2022-09-09T01:58:37;20.53;;;19.20;;
15454;SDS011;21057;51.024;7.540;2022-09-09T02:01:15;20.10;;;19.10;;
15454;SDS011;21057;51.024;7.540;2022-09-09T02:03:51;21.07;;;19.87;;
15454;SDS011;21057;51.024;7.540;2022-09-09T02:06:24;19.47;;;18.03;;
15454;SDS011;21057;51.024;7.540;2022-09-09T02:08:56;18.73;;;17.60;;
15454;SDS011;21057;51.024;7.540;2022-09-09T02:11:25;18.30;;;17.20;;
15454;SDS011;21057;51.024;7.540;2022-09-09T02:13:56;18.53;;;17.47;;
15454;SDS011;21057;51.024;7.540;2022-09-09T02:16:28;18.77;;;17.63;;
15454;SDS011;21057;51.024;7.540;2022-09-09T02:19:06;18.40;;;17.50;;
15454;SDS011;21057;51.024;7.540;2022-09-09T02:21:37;18.63;;;17.53;;
15454;SDS011;21057;51.024;7.540;2022-09-09T02:24:07;18.73;;;17.40;;
15454;SDS011;21057;51.024;7.540;2022-09-09T02:26:37;18.53;;;17.33;;
15454;SDS011;21057;51.024;7.540;2022-09-09T02:29:14;18.80;;;17.80;;
15454;SDS011;21057;51.024;7.540;2022-09-09T02:31:45;18.33;;;17.33;;
15454;SDS011;21057;51.024;7.540;2022-09-09T02:34:15;18.43;;;17.43;;
15454;SDS011;21057;51.024;7.540;2022-09-09T02:36:46;19.30;;;18.20;;
15454;SDS011;21057;51.024;7.540;2022-09-09T02:39:18;19.33;;;18.23;;
15454;SDS011;21057;51.024;7.540;2022-09-09T02:41:45;18.77;;;17.67;;
15454;SDS011;21057;51.024;7.540;2022-09-09T02:44:14;17.90;;;16.90;;
15454;SDS011;21057;51.024;7.540;2022-09-09T02:47:07;18.40;;;17.40;;
15454;SDS011;21057;51.024;7.540;2022-09-09T02:49:57;19.67;;;18.57;;
15454;SDS011;21057;51.024;7.540;2022-09-09T02:52:33;19.30;;;18.30;;
15454;SDS011;21057;51.024;7.540;2022-09-09T02:55:10;19.90;;;18.40;;
15454;SDS011;21057;51.024;7.540;2022-09-09T02:57:41;19.27;;;18.27;;
15454;SDS011;21057;51.024;7.540;2022-09-09T03:03:02;20.40;;;19.30;;
15454;SDS011;21057;51.024;7.540;2022-09-09T03:05:29;19.77;;;18.47;;
15454;SDS011;21057;51.024;7.540;2022-09-09T03:07:56;19.87;;;18.77;;
15454;SDS011;21057;51.024;7.540;2022-09-09T03:10:24;20.60;;;19.40;;
15454;SDS011;21057;51.024;7.540;2022-09-09T03:15:46;20.03;;;18.93;;
15454;SDS011;21057;51.024;7.540;2022-09-09T03:18:16;19.93;;;18.83;;
15454;SDS011;21057;51.024;7.540;2022-09-09T03:20:45;20.57;;;19.37;;
15454;SDS011;21057;51.024;7.540;2022-09-09T03:23:13;21.63;;;19.93;;
15454;SDS011;21057;51.024;7.540;2022-09-09T03:25:45;21.40;;;20.07;;
15454;SDS011;21057;51.024;7.540;2022-09-09T03:28:13;21.87;;;20.40;;
15454;SDS011;21057;51.024;7.540;2022-09-09T03:30:40;20.73;;;19.57;;
15454;SDS011;21057;51.024;7.540;2022-09-09T03:33:08;19.80;;;18.67;;
15454;SDS011;21057;51.024;7.540;2022-09-09T03:35:37;20.90;;;19.60;;
15454;SDS011;21057;51.024;7.540;2022-09-09T03:38:04;20.60;;;19.50;;
15454;SDS011;21057;51.024;7.540;2022-09-09T03:40:31;20.20;;;19.10;;
15454;SDS011;21057;51.024;7.540;2022-09-09T03:42:58;21.30;;;19.67;;
15454;SDS011;21057;51.024;7.540;2022-09-09T03:48:16;20.80;;;19.70;;
15454;SDS011;21057;51.024;7.540;2022-09-09T03:50:44;20.17;;;18.97;;
15454;SDS011;21057;51.024;7.540;2022-09-09T03:53:11;20.80;;;19.60;;
15454;SDS011;21057;51.024;7.540;2022-09-09T03:55:38;20.07;;;18.97;;
15454;SDS011;21057;51.024;7.540;2022-09-09T03:58:06;20.13;;;18.93;;
15454;SDS011;21057;51.024;7.540;2022-09-09T04:00:33;20.40;;;19.20;;
15454;SDS011;21057;51.024;7.540;2022-09-09T04:03:00;20.37;;;19.17;;
15454;SDS011;21057;51.024;7.540;2022-09-09T04:05:35;20.40;;;19.30;;
15454;SDS011;21057;51.024;7.540;2022-09-09T04:08:04;20.83;;;19.63;;
15454;SDS011;21057;51.024;7.540;2022-09-09T04:10:32;20.90;;;19.67;;
15454;SDS011;21057;51.024;7.540;2022-09-09T04:12:59;21.10;;;19.90;;
15454;SDS011;21057;51.024;7.540;2022-09-09T04:15:26;21.57;;;20.20;;
15454;SDS011;21057;51.024;7.540;2022-09-09T04:17:54;21.63;;;19.93;;
15454;SDS011;21057;51.024;7.540;2022-09-09T04:20:20;21.60;;;20.30;;
15454;SDS011;21057;51.024;7.540;2022-09-09T04:22:49;22.07;;;20.90;;
15454;SDS011;21057;51.024;7.540;2022-09-09T04:25:16;21.23;;;19.93;;
15454;SDS011;21057;51.024;7.540;2022-09-09T04:27:43;22.17;;;20.37;;
15454;SDS011;21057;51.024;7.540;2022-09-09T04:30:10;21.97;;;20.67;;
15454;SDS011;21057;51.024;7.540;2022-09-09T04:32:37;22.20;;;21.00;;
15454;SDS011;21057;51.024;7.540;2022-09-09T04:35:04;21.93;;;20.43;;
15454;SDS011;21057;51.024;7.540;2022-09-09T04:37:31;21.90;;;20.70;;
15454;SDS011;21057;51.024;7.540;2022-09-09T04:40:00;22.00;;;20.67;;
15454;SDS011;21057;51.024;7.540;2022-09-09T04:42:27;21.70;;;20.50;;
15454;SDS011;21057;51.024;7.540;2022-09-09T04:44:54;22.30;;;20.90;;
15454;SDS011;21057;51.024;7.540;2022-09-09T04:47:21;23.00;;;21.37;;
15454;SDS011;21057;51.024;7.540;2022-09-09T04:49:48;22.70;;;21.30;;
15454;SDS011;21057;51.024;7.540;2022-09-09T04:52:16;21.47;;;20.37;;
15454;SDS011;21057;51.024;7.540;2022-09-09T04:54:43;22.30;;;21.10;;
15454;SDS011;21057;51.024;7.540;2022-09-09T04:57:12;23.10;;;21.70;;
15454;SDS011;21057;51.024;7.540;2022-09-09T04:59:39;23.43;;;21.87;;
15454;SDS011;21057;51.024;7.540;2022-09-09T05:02:06;22.60;;;21.20;;
15454;SDS011;21057;51.024;7.540;2022-09-09T05:04:34;22.03;;;20.80;;
15454;SDS011;21057;51.024;7.540;2022-09-09T05:07:00;23.43;;;22.03;;
15454;SDS011;21057;51.024;7.540;2022-09-09T05:12:53;22.73;;;21.43;;
15454;SDS011;21057;51.024;7.540;2022-09-09T05:15:20;22.83;;;21.47;;
15454;SDS011;21057;51.024;7.540;2022-09-09T05:17:56;22.13;;;20.73;;
15454;SDS011;21057;51.024;7.540;2022-09-09T05:26:22;22.57;;;21.17;;
15454;SDS011;21057;51.024;7.540;2022-09-09T05:28:51;23.17;;;21.80;;
15454;SDS011;21057;51.024;7.540;2022-09-09T05:31:18;22.90;;;21.40;;
15454;SDS011;21057;51.024;7.540;2022-09-09T05:33:46;25.27;;;23.67;;
15454;SDS011;21057;51.024;7.540;2022-09-09T05:36:21;23.67;;;22.27;;
15454;SDS011;21057;51.024;7.540;2022-09-09T05:38:50;24.33;;;22.80;;
15454;SDS011;21057;51.024;7.540;2022-09-09T05:44:14;22.47;;;21.00;;
15454;SDS011;21057;51.024;7.540;2022-09-09T05:46:54;22.63;;;21.27;;
15454;SDS011;21057;51.024;7.540;2022-09-09T05:49:21;22.77;;;21.27;;
15454;SDS011;21057;51.024;7.540;2022-09-09T05:51:52;22.20;;;20.90;;
15454;SDS011;21057;51.024;7.540;2022-09-09T05:54:19;21.30;;;20.00;;
15454;SDS011;21057;51.024;7.540;2022-09-09T05:56:49;22.83;;;20.90;;
15454;SDS011;21057;51.024;7.540;2022-09-09T05:59:19;22.30;;;20.80;;
15454;SDS011;21057;51.024;7.540;2022-09-09T06:01:46;23.30;;;21.60;;
15454;SDS011;21057;51.024;7.540;2022-09-09T06:04:20;23.13;;;21.73;;
15454;SDS011;21057;51.024;7.540;2022-09-09T06:06:53;23.65;;;22.25;;
15454;SDS011;21057;51.024;7.540;2022-09-09T06:09:21;21.90;;;20.60;;
15454;SDS011;21057;51.024;7.540;2022-09-09T06:14:32;22.42;;;20.85;;
15454;SDS011;21057;51.024;7.540;2022-09-09T06:16:59;22.52;;;21.02;;
15454;SDS011;21057;51.024;7.540;2022-09-09T06:19:27;23.03;;;21.43;;
15454;SDS011;21057;51.024;7.540;2022-09-09T06:21:55;22.30;;;20.90;;
15454;SDS011;21057;51.024;7.540;2022-09-09T06:24:24;22.85;;;21.15;;
15454;SDS011;21057;51.024;7.540;2022-09-09T06:26:51;22.40;;;21.00;;
15454;SDS011;21057;51.024;7.540;2022-09-09T06:32:06;22.70;;;21.20;;
15454;SDS011;21057;51.024;7.540;2022-09-09T06:34:43;22.63;;;21.23;;
15454;SDS011;21057;51.024;7.540;2022-09-09T06:37:10;20.83;;;19.50;;
15454;SDS011;21057;51.024;7.540;2022-09-09T06:39:42;23.77;;;21.50;;
15454;SDS011;21057;51.024;7.540;2022-09-09T06:42:09;22.00;;;20.50;;
15454;SDS011;21057;51.024;7.540;2022-09-09T06:44:36;21.90;;;20.60;;
15454;SDS011;21057;51.024;7.540;2022-09-09T06:47:05;21.70;;;20.20;;
15454;SDS011;21057;51.024;7.540;2022-09-09T06:49:32;22.47;;;20.87;;
15454;SDS011;21057;51.024;7.540;2022-09-09T06:52:09;20.13;;;19.03;;
15454;SDS011;21057;51.024;7.540;2022-09-09T06:54:48;20.17;;;18.88;;
15454;SDS011;21057;51.024;7.540;2022-09-09T06:57:15;20.27;;;19.07;;
15454;SDS011;21057;51.024;7.540;2022-09-09T06:59:56;19.10;;;17.73;;
15454;SDS011;21057;51.024;7.540;2022-09-09T07:02:26;19.92;;;18.83;;
15454;SDS011;21057;51.024;7.540;2022-09-09T07:05:02;19.73;;;18.17;;
15454;SDS011;21057;51.024;7.540;2022-09-09T07:07:29;19.37;;;18.13;;
15454;SDS011;21057;51.024;7.540;2022-09-09T07:09:56;19.83;;;18.45;;
15454;SDS011;21057;51.024;7.540;2022-09-09T07:12:23;18.77;;;17.67;;
15454;SDS011;21057;51.024;7.540;2022-09-09T07:14:50;18.63;;;17.48;;
15454;SDS011;21057;51.024;7.540;2022-09-09T07:17:17;19.58;;;18.17;;
15454;SDS011;21057;51.024;7.540;2022-09-09T07:19:48;19.08;;;17.90;;
15454;SDS011;21057;51.024;7.540;2022-09-09T07:22:15;19.70;;;18.50;;
15454;SDS011;21057;51.024;7.540;2022-09-09T07:24:43;20.15;;;18.95;;
15454;SDS011;21057;51.024;7.540;2022-09-09T07:27:10;19.75;;;18.48;;
15454;SDS011;21057;51.024;7.540;2022-09-09T07:32:25;18.88;;;17.77;;
15454;SDS011;21057;51.024;7.540;2022-09-09T07:35:00;18.92;;;17.83;;
15454;SDS011;21057;51.024;7.540;2022-09-09T07:37:40;19.88;;;18.75;;
15454;SDS011;21057;51.024;7.540;2022-09-09T07:40:20;19.23;;;18.13;;
15454;SDS011;21057;51.024;7.540;2022-09-09T07:42:47;20.10;;;18.60;;
15454;SDS011;21057;51.024;7.540;2022-09-09T07:45:14;19.92;;;18.45;;
15454;SDS011;21057;51.024;7.540;2022-09-09T07:47:42;19.73;;;18.33;;
15454;SDS011;21057;51.024;7.540;2022-09-09T07:50:22;19.75;;;18.55;;
15454;SDS011;21057;51.024;7.540;2022-09-09T07:52:50;19.75;;;18.50;;
15454;SDS011;21057;51.024;7.540;2022-09-09T07:55:17;20.70;;;19.08;;
15454;SDS011;21057;51.024;7.540;2022-09-09T07:57:45;19.80;;;18.52;;
15454;SDS011;21057;51.024;7.540;2022-09-09T08:00:13;18.85;;;17.70;;
15454;SDS011;21057;51.024;7.540;2022-09-09T08:02:40;19.55;;;18.35;;
15454;SDS011;21057;51.024;7.540;2022-09-09T08:05:11;18.60;;;17.50;;
15454;SDS011;21057;51.024;7.540;2022-09-09T08:07:43;18.58;;;17.38;;
15454;SDS011;21057;51.024;7.540;2022-09-09T08:10:17;18.15;;;17.15;;
15454;SDS011;21057;51.024;7.540;2022-09-09T08:12:44;19.23;;;17.73;;
15454;SDS011;21057;51.024;7.540;2022-09-09T08:15:17;18.30;;;17.10;;
15454;SDS011;21057;51.024;7.540;2022-09-09T08:17:44;19.05;;;17.85;;
15454;SDS011;21057;51.024;7.540;2022-09-09T08:20:12;18.77;;;17.67;;
15454;SDS011;21057;51.024;7.540;2022-09-09T08:22:56;18.23;;;16.88;;
15454;SDS011;21057;51.024;7.540;2022-09-09T08:25:24;17.60;;;16.60;;
15454;SDS011;21057;51.024;7.540;2022-09-09T08:27:52;17.38;;;16.40;;
15454;SDS011;21057;51.024;7.540;2022-09-09T08:30:23;17.40;;;16.40;;
15454;SDS011;21057;51.024;7.540;2022-09-09T08:32:51;16.77;;;15.88;;
15454;SDS011;21057;51.024;7.540;2022-09-09T08:35:29;16.58;;;15.68;;
15454;SDS011;21057;51.024;7.540;2022-09-09T08:40:29;17.23;;;15.85;;
15454;SDS011;21057;51.024;7.540;2022-09-09T08:43:04;16.98;;;16.02;;
15454;SDS011;21057;51.024;7.540;2022-09-09T08:45:41;17.52;;;16.33;;
15454;SDS011;21057;51.024;7.540;2022-09-09T08:48:30;16.20;;;15.30;;
15454;SDS011;21057;51.024;7.540;2022-09-09T08:51:18;16.88;;;15.88;;
15454;SDS011;21057;51.024;7.540;2022-09-09T08:53:48;16.77;;;15.73;;
15454;SDS011;21057;51.024;7.540;2022-09-09T08:56:18;17.00;;;16.00;;
15454;SDS011;21057;51.024;7.540;2022-09-09T08:58:48;17.20;;;16.10;;
15454;SDS011;21057;51.024;7.540;2022-09-09T09:07:20;18.00;;;16.80;;
15454;SDS011;21057;51.024;7.540;2022-09-09T09:10:15;17.88;;;16.88;;
15454;SDS011;21057;51.024;7.540;2022-09-09T09:13:02;17.23;;;16.23;;
15454;SDS011;21057;51.024;7.540;2022-09-09T09:18:03;17.23;;;16.08;;
15454;SDS011;21057;51.024;7.540;2022-09-09T09:20:34;18.05;;;16.92;;
15454;SDS011;21057;51.024;7.540;2022-09-09T09:23:23;17.67;;;16.67;;
15454;SDS011;21057;51.024;7.540;2022-09-09T09:25:55;18.23;;;16.70;;
15454;SDS011;21057;51.024;7.540;2022-09-09T09:28:26;17.30;;;16.30;;
15454;SDS011;21057;51.024;7.540;2022-09-09T09:30:58;17.40;;;16.40;;
15454;SDS011;21057;51.024;7.540;2022-09-09T09:33:28;17.55;;;16.55;;
15454;SDS011;21057;51.024;7.540;2022-09-09T09:36:00;17.02;;;16.02;;
15454;SDS011;21057;51.024;7.540;2022-09-09T09:38:29;17.45;;;16.35;;
15454;SDS011;21057;51.024;7.540;2022-09-09T09:40:58;16.88;;;15.98;;
15454;SDS011;21057;51.024;7.540;2022-09-09T09:43:28;17.58;;;16.50;;
15454;SDS011;21057;51.024;7.540;2022-09-09T09:46:05;18.05;;;16.95;;
15454;SDS011;21057;51.024;7.540;2022-09-09T09:48:45;17.70;;;16.60;;
15454;SDS011;21057;51.024;7.540;2022-09-09T09:51:30;17.52;;;16.25;;
15454;SDS011;21057;51.024;7.540;2022-09-09T09:54:16;16.80;;;15.80;;
15454;SDS011;21057;51.024;7.540;2022-09-09T09:56:52;17.58;;;16.00;;
15454;SDS011;21057;51.024;7.540;2022-09-09T09:59:21;17.27;;;16.38;;
15454;SDS011;21057;51.024;7.540;2022-09-09T10:01:50;17.30;;;16.30;;
15454;SDS011;21057;51.024;7.540;2022-09-09T10:04:17;16.70;;;15.73;;
15454;SDS011;21057;51.024;7.540;2022-09-09T10:06:50;16.65;;;15.65;;
15454;SDS011;21057;51.024;7.540;2022-09-09T10:09:20;16.42;;;15.30;;
15454;SDS011;21057;51.024;7.540;2022-09-09T10:11:51;17.90;;;16.70;;
15454;SDS011;21057;51.024;7.540;2022-09-09T10:14:45;17.00;;;15.90;;
15454;SDS011;21057;51.024;7.540;2022-09-09T10:17:20;17.35;;;16.23;;
15454;SDS011;21057;51.024;7.540;2022-09-09T10:19:57;17.50;;;16.17;;
15454;SDS011;21057;51.024;7.540;2022-09-09T10:22:39;18.02;;;16.90;;
15454;SDS011;21057;51.024;7.540;2022-09-09T10:25:17;18.25;;;17.25;;
15454;SDS011;21057;51.024;7.540;2022-09-09T10:27:56;17.90;;;16.90;;
15454;SDS011;21057;51.024;7.540;2022-09-09T10:30:54;17.48;;;16.30;;
15454;SDS011;21057;51.024;7.540;2022-09-09T10:33:30;17.98;;;16.88;;
15454;SDS011;21057;51.024;7.540;2022-09-09T10:36:07;17.63;;;16.27;;
15454;SDS011;21057;51.024;7.540;2022-09-09T10:38:45;17.38;;;16.35;;
15454;SDS011;21057;51.024;7.540;2022-09-09T10:41:15;16.75;;;15.75;;
15454;SDS011;21057;51.024;7.540;2022-09-09T10:44:00;17.40;;;16.40;;
15454;SDS011;21057;51.024;7.540;2022-09-09T10:47:00;17.25;;;16.25;;
15454;SDS011;21057;51.024;7.540;2022-09-09T10:49:47;16.95;;;16.05;;
15454;SDS011;21057;51.024;7.540;2022-09-09T10:52:32;17.35;;;16.30;;
15454;SDS011;21057;51.024;7.540;2022-09-09T10:55:08;17.65;;;16.35;;
15454;SDS011;21057;51.024;7.540;2022-09-09T10:57:40;17.35;;;16.35;;
15454;SDS011;21057;51.024;7.540;2022-09-09T11:00:15;17.80;;;16.70;;
15454;SDS011;21057;51.024;7.540;2022-09-09T11:06:21;16.77;;;15.77;;
15454;SDS011;21057;51.024;7.540;2022-09-09T11:08:53;17.38;;;16.25;;
15454;SDS011;21057;51.024;7.540;2022-09-09T11:11:21;17.23;;;16.08;;
15454;SDS011;21057;51.024;7.540;2022-09-09T11:14:04;17.52;;;16.42;;
15454;SDS011;21057;51.024;7.540;2022-09-09T11:16:42;17.70;;;16.50;;
15454;SDS011;21057;51.024;7.540;2022-09-09T11:19:28;17.20;;;16.10;;
15454;SDS011;21057;51.024;7.540;2022-09-09T11:22:00;17.90;;;16.58;;
15454;SDS011;21057;51.024;7.540;2022-09-09T11:24:38;17.17;;;16.13;;
15454;SDS011;21057;51.024;7.540;2022-09-09T11:27:09;16.88;;;15.88;;
15454;SDS011;21057;51.024;7.540;2022-09-09T11:32:51;17.35;;;16.20;;
15454;SDS011;21057;51.024;7.540;2022-09-09T11:35:37;17.40;;;16.40;;
15454;SDS011;21057;51.024;7.540;2022-09-09T11:38:16;17.95;;;16.75;;
15454;SDS011;21057;51.024;7.540;2022-09-09T11:40:47;17.65;;;16.52;;
15454;SDS011;21057;51.024;7.540;2022-09-09T11:43:23;18.67;;;17.30;;
15454;SDS011;21057;51.024;7.540;2022-09-09T11:45:53;18.80;;;17.50;;
15454;SDS011;21057;51.024;7.540;2022-09-09T11:48:27;17.73;;;16.63;;
15454;SDS011;21057;51.024;7.540;2022-09-09T11:51:06;18.33;;;17.23;;
15454;SDS011;21057;51.024;7.540;2022-09-09T11:53:35;18.42;;;17.13;;
15454;SDS011;21057;51.024;7.540;2022-09-09T11:56:28;18.27;;;16.92;;
15454;SDS011;21057;51.024;7.540;2022-09-09T11:59:04;17.88;;;16.70;;
15454;SDS011;21057;51.024;7.540;2022-09-09T12:01:36;18.08;;;16.92;;
15454;SDS011;21057;51.024;7.540;2022-09-09T12:07:22;18.52;;;17.13;;
15454;SDS011;21057;51.024;7.540;2022-09-09T12:10:03;17.67;;;16.58;;
15454;SDS011;21057;51.024;7.540;2022-09-09T12:12:52;18.35;;;17.25;;
15454;SDS011;21057;51.024;7.540;2022-09-09T12:15:27;18.65;;;17.42;;
15454;SDS011;21057;51.024;7.540;2022-09-09T12:17:55;17.70;;;16.70;;
15454;SDS011;21057;51.024;7.540;2022-09-09T12:20:30;17.70;;;16.70;;
15454;SDS011;21057;51.024;7.540;2022-09-09T12:25:56;17.23;;;16.20;;
15454;SDS011;21057;51.024;7.540;2022-09-09T12:28:39;17.40;;;16.30;;
15454;SDS011;21057;51.024;7.540;2022-09-09T12:31:14;17.60;;;16.33;;
15454;SDS011;21057;51.024;7.540;2022-09-09T12:33:49;17.00;;;15.90;;
15454;SDS011;21057;51.024;7.540;2022-09-09T12:36:19;17.42;;;16.42;;
15454;SDS011;21057;51.024;7.540;2022-09-09T12:38:51;16.90;;;15.90;;
15454;SDS011;21057;51.024;7.540;2022-09-09T12:41:20;16.67;;;15.70;;
15454;SDS011;21057;51.024;7.540;2022-09-09T12:43:48;16.88;;;15.98;;
15454;SDS011;21057;51.024;7.540;2022-09-09T12:46:21;18.15;;;16.85;;
15454;SDS011;21057;51.024;7.540;2022-09-09T12:48:56;18.10;;;17.00;;
15454;SDS011;21057;51.024;7.540;2022-09-09T12:51:26;17.35;;;16.25;;
15454;SDS011;21057;51.024;7.540;2022-09-09T12:53:55;17.30;;;16.20;;
15454;SDS011;21057;51.024;7.540;2022-09-09T12:56:25;17.23;;;16.23;;
15454;SDS011;21057;51.024;7.540;2022-09-09T12:58:55;17.48;;;16.38;;
15454;SDS011;21057;51.024;7.540;2022-09-09T13:01:24;16.77;;;15.70;;
15454;SDS011;21057;51.024;7.540;2022-09-09T13:03:53;17.05;;;16.05;;
15454;SDS011;21057;51.024;7.540;2022-09-09T13:06:21;16.88;;;15.80;;
15454;SDS011;21057;51.024;7.540;2022-09-09T13:08:51;17.08;;;16.08;;
15454;SDS011;21057;51.024;7.540;2022-09-09T13:11:20;17.63;;;16.42;;
15454;SDS011;21057;51.024;7.540;2022-09-09T13:13:59;16.80;;;15.80;;
15454;SDS011;21057;51.024;7.540;2022-09-09T13:16:27;17.13;;;15.90;;
15454;SDS011;21057;51.024;7.540;2022-09-09T13:18:56;17.00;;;15.70;;
15454;SDS011;21057;51.024;7.540;2022-09-09T13:21:34;17.38;;;16.10;;
15454;SDS011;21057;51.024;7.540;2022-09-09T13:24:05;17.08;;;16.00;;
15454;SDS011;21057;51.024;7.540;2022-09-09T13:26:53;16.80;;;15.70;;
15454;SDS011;21057;51.024;7.540;2022-09-09T13:29:31;17.63;;;16.55;;
15454;SDS011;21057;51.024;7.540;2022-09-09T13:32:17;18.17;;;16.98;;
15454;SDS011;21057;51.024;7.540;2022-09-09T13:34:50;18.48;;;17.25;;
15454;SDS011;21057;51.024;7.540;2022-09-09T13:37:19;17.92;;;16.77;;
15454;SDS011;21057;51.024;7.540;2022-09-09T13:39:54;18.33;;;17.33;;
15454;SDS011;21057;51.024;7.540;2022-09-09T13:42:24;18.10;;;17.00;;
15454;SDS011;21057;51.024;7.540;2022-09-09T13:44:52;17.60;;;16.50;;
15454;SDS011;21057;51.024;7.540;2022-09-09T13:47:29;17.15;;;16.05;;
15454;SDS011;21057;51.024;7.540;2022-09-09T13:49:58;17.17;;;16.17;;
15454;SDS011;21057;51.024;7.540;2022-09-09T13:52:44;17.83;;;16.63;;
15454;SDS011;21057;51.024;7.540;2022-09-09T13:55:13;18.10;;;16.70;;
15454;SDS011;21057;51.024;7.540;2022-09-09T13:57:49;17.13;;;16.02;;
15454;SDS011;21057;51.024;7.540;2022-09-09T14:00:32;16.60;;;15.70;;
15454;SDS011;21057;51.024;7.540;2022-09-09T14:03:00;16.92;;;16.00;;
15454;SDS011;21057;51.024;7.540;2022-09-09T14:05:27;17.10;;;16.15;;
15454;SDS011;21057;51.024;7.540;2022-09-09T14:07:56;17.00;;;16.00;;
15454;SDS011;21057;51.024;7.540;2022-09-09T14:10:28;16.80;;;15.57;;
15454;SDS011;21057;51.024;7.540;2022-09-09T14:13:10;17.27;;;16.15;;
15454;SDS011;21057;51.024;7.540;2022-09-09T14:15:38;17.38;;;16.15;;
15454;SDS011;21057;51.024;7.540;2022-09-09T14:18:09;16.77;;;15.68;;
15454;SDS011;21057;51.024;7.540;2022-09-09T14:20:47;17.10;;;15.90;;
15454;SDS011;21057;51.024;7.540;2022-09-09T14:23:15;17.05;;;16.05;;
15454;SDS011;21057;51.024;7.540;2022-09-09T14:25:45;16.95;;;15.93;;
15454;SDS011;21057;51.024;7.540;2022-09-09T14:28:12;16.23;;;15.32;;
15454;SDS011;21057;51.024;7.540;2022-09-09T14:30:41;17.05;;;16.05;;
15454;SDS011;21057;51.024;7.540;2022-09-09T14:33:16;17.30;;;16.30;;
15454;SDS011;21057;51.024;7.540;2022-09-09T14:35:43;17.00;;;16.10;;
15454;SDS011;21057;51.024;7.540;2022-09-09T14:38:12;17.67;;;16.23;;
15454;SDS011;21057;51.024;7.540;2022-09-09T14:40:39;16.90;;;16.00;;
15454;SDS011;21057;51.024;7.540;2022-09-09T14:43:10;17.20;;;16.10;;
15454;SDS011;21057;51.024;7.540;2022-09-09T14:45:37;17.67;;;16.60;;
15454;SDS011;21057;51.024;7.540;2022-09-09T14:50:40;17.10;;;16.10;;
15454;SDS011;21057;51.024;7.540;2022-09-09T14:53:08;17.10;;;16.00;;
15454;SDS011;21057;51.024;7.540;2022-09-09T14:55:35;16.88;;;15.90;;
15454;SDS011;21057;51.024;7.540;2022-09-09T14:58:03;17.15;;;16.15;;
15454;SDS011;21057;51.024;7.540;2022-09-09T15:00:31;17.63;;;16.25;;
15454;SDS011;21057;51.024;7.540;2022-09-09T15:03:08;17.60;;;16.40;;
15454;SDS011;21057;51.024;7.540;2022-09-09T15:05:35;17.33;;;16.23;;
15454;SDS011;21057;51.024;7.540;2022-09-09T15:08:02;16.92;;;15.82;;
15454;SDS011;21057;51.024;7.540;2022-09-09T15:10:31;17.00;;;16.00;;
15454;SDS011;21057;51.024;7.540;2022-09-09T15:18:24;16.45;;;15.50;;
15454;SDS011;21057;51.024;7.540;2022-09-09T15:20:51;16.77;;;15.82;;
15454;SDS011;21057;51.024;7.540;2022-09-09T15:23:20;16.88;;;15.98;;
15454;SDS011;21057;51.024;7.540;2022-09-09T15:26:02;17.48;;;16.42;;
15454;SDS011;21057;51.024;7.540;2022-09-09T15:28:29;17.33;;;16.08;;
15454;SDS011;21057;51.024;7.540;2022-09-09T15:31:00;17.35;;;15.95;;
15454;SDS011;21057;51.024;7.540;2022-09-09T15:38:46;17.13;;;16.23;;
15454;SDS011;21057;51.024;7.540;2022-09-09T15:41:13;17.52;;;16.52;;
15454;SDS011;21057;51.024;7.540;2022-09-09T15:43:42;19.35;;;18.05;;
15454;SDS011;21057;51.024;7.540;2022-09-09T15:51:47;18.73;;;17.73;;
15454;SDS011;21057;51.024;7.540;2022-09-09T15:54:17;18.95;;;17.50;;
15454;SDS011;21057;51.024;7.540;2022-09-09T15:59:20;18.70;;;17.65;;
15454;SDS011;21057;51.024;7.540;2022-09-09T16:01:49;18.88;;;17.67;;
15454;SDS011;21057;51.024;7.540;2022-09-09T16:04:25;17.45;;;16.45;;
15454;SDS011;21057;51.024;7.540;2022-09-09T16:06:56;17.73;;;16.73;;
15454;SDS011;21057;51.024;7.540;2022-09-09T16:09:28;18.48;;;17.48;;
15454;SDS011;21057;51.024;7.540;2022-09-09T16:14:34;18.63;;;17.52;;